»·PEaware :: N701GT KMRY-KSBA

N701GT :: KMRY-KSBA

FLIGHT INFORMATION

Flight Status: Arrived
Operator: Privately registered:
United States
More flights under this callsign
Pilot: Anonymous 17564 (17564)
Aircraft: BEECH AIRCRAFT DUKE
(BE60)
More flights by this aircraft type
Origin: KMRY Monterey Peninsula
United States
Destination: KSBA Santa Barbara Mun
United States
More flights between these airports :: More routes between these airports
Route: +MRY5 SHOEY SNS V25 RZS
File this flight plan on PilotEdge
Remarks:
Altitude:
(Current/Filed)
14,000ft
Speed:
(Current/Filed)
240kts
Departed: 25-May-19 01:40 PM
Arrived: 25-May-19 02:33 PM
Distance/Time
Traveled:
162nm/0:52
Distance/Time
To Go:
Arrived

Flight Plot

Page will automatically refresh every two minutes.


Map Options




Map Legend


Flown Route
Filed Route
Departure Airport
Arrival Airport
Navaid (VOR, NDB)
Fix

Horizontal Profiles

Position Reports

Time Latitude Longitude Heading Altitude Ground
Speed
25-May-19 13:21 36.588835 -121.853876 245 208ft 0kts
25-May-19 13:22 36.588835 -121.853876 245 208ft 0kts
25-May-19 13:23 36.588835 -121.853876 245 208ft 0kts
25-May-19 13:23 36.588835 -121.853876 245 208ft 0kts
25-May-19 13:25 36.588835 -121.853876 245 208ft 0kts
25-May-19 13:25 36.588835 -121.853876 245 208ft 0kts
25-May-19 13:26 36.588835 -121.853876 245 208ft 0kts
25-May-19 13:28 36.588834 -121.853879 245 208ft 0kts
25-May-19 13:28 36.588832 -121.853883 245 208ft 0kts
25-May-19 13:30 36.588831 -121.853887 245 208ft 0kts
25-May-19 13:30 36.589180 -121.853642 58 208ft 3kts
25-May-19 13:31 36.588778 -121.852088 112 208ft 5kts
25-May-19 13:32 36.588126 -121.850105 113 208ft 5kts
25-May-19 13:33 36.587296 -121.847690 113 208ft 16kts
25-May-19 13:34 36.585377 -121.842463 113 208ft 17kts
25-May-19 13:35 36.583378 -121.836553 112 208ft 18kts
25-May-19 13:36 36.582865 -121.834765 96 208ft 0kts
25-May-19 13:37 36.582864 -121.834761 96 208ft 0kts
25-May-19 13:38 36.583777 -121.834859 292 208ft 19kts
25-May-19 13:39 36.600000 -121.876231 305 1273ft 182kts
25-May-19 13:40 36.648638 -121.902245 341 3005ft 197kts
25-May-19 13:41 36.688995 -121.870055 89 4851ft 207kts
25-May-19 13:42 36.679028 -121.799384 97 7071ft 208kts
25-May-19 13:43 36.673155 -121.727300 94 9465ft 211kts
25-May-19 13:44 36.667586 -121.652704 93 11622ft 224kts
25-May-19 13:45 36.643543 -121.584277 151 13634ft 230kts
25-May-19 13:46 36.591810 -121.531919 140 14978ft 261kts
25-May-19 13:47 36.534824 -121.474270 142 14979ft 259kts
25-May-19 13:48 36.478637 -121.418235 142 14978ft 256kts
25-May-19 13:49 36.423257 -121.363185 142 14973ft 256kts
25-May-19 13:50 36.367517 -121.307889 142 14973ft 256kts
25-May-19 13:51 36.311872 -121.252760 142 14967ft 256kts
25-May-19 13:52 36.256271 -121.197792 142 15001ft 255kts
25-May-19 13:53 36.200928 -121.143198 142 14998ft 255kts
25-May-19 13:54 36.144942 -121.088076 142 14985ft 254kts
25-May-19 13:55 36.089633 -121.033720 142 14983ft 253kts
25-May-19 13:56 36.034479 -120.979617 143 14991ft 253kts
25-May-19 13:57 35.979442 -120.925735 142 14982ft 253kts
25-May-19 13:58 35.924329 -120.871866 143 14986ft 252kts
25-May-19 13:59 35.869188 -120.818063 143 14959ft 253kts
25-May-19 14:00 35.814287 -120.764610 143 14947ft 251kts
25-May-19 14:01 35.759406 -120.711267 143 14950ft 251kts
25-May-19 14:02 35.704603 -120.658097 143 14951ft 250kts
25-May-19 14:03 35.648021 -120.608497 150 14952ft 249kts
25-May-19 14:04 35.588744 -120.564331 150 14953ft 249kts
25-May-19 14:05 35.529687 -120.520283 150 14959ft 249kts
25-May-19 14:06 35.470284 -120.476034 150 14967ft 248kts
25-May-19 14:07 35.411170 -120.432073 150 14971ft 248kts
25-May-19 14:08 35.352071 -120.388201 150 14976ft 248kts
25-May-19 14:09 35.292891 -120.344346 150 14978ft 248kts
25-May-19 14:10 35.233683 -120.300547 150 14979ft 249kts
25-May-19 14:11 35.174312 -120.256702 150 14994ft 249kts
25-May-19 14:12 35.115550 -120.213379 150 14995ft 248kts
25-May-19 14:13 35.056213 -120.169702 150 14996ft 248kts
25-May-19 14:14 34.996968 -120.126173 150 14997ft 249kts
25-May-19 14:15 34.937733 -120.082729 149 14994ft 248kts
25-May-19 14:16 34.878453 -120.039347 149 14991ft 248kts
25-May-19 14:17 34.819072 -119.995956 149 14992ft 248kts
25-May-19 14:18 34.759998 -119.952860 149 13708ft 243kts
25-May-19 14:19 34.701967 -119.910595 149 11713ft 242kts
25-May-19 14:20 34.645431 -119.869473 149 9713ft 230kts
25-May-19 14:21 34.594279 -119.832330 149 8994ft 200kts
25-May-19 14:22 34.548423 -119.798866 149 8989ft 182kts
25-May-19 14:23 34.504334 -119.772114 182 8615ft 191kts
25-May-19 14:24 34.446501 -119.785429 193 7034ft 210kts
25-May-19 14:25 34.395129 -119.800772 210 6979ft 175kts
25-May-19 14:26 34.381345 -119.854150 262 6994ft 175kts
25-May-19 14:27 34.374634 -119.914628 262 6489ft 193kts
25-May-19 14:28 34.393454 -119.963269 358 5180ft 168kts
25-May-19 14:29 34.420747 -119.935196 62 3112ft 130kts
25-May-19 14:30 34.426764 -119.895852 90 887ft 105kts
25-May-19 14:31 34.427378 -119.862714 92 157ft 98kts
25-May-19 14:32 34.427841 -119.839365 75 13ft 14kts
25-May-19 14:33 34.428787 -119.838973 344 13ft 6kts
25-May-19 14:34 34.431132 -119.838374 70 13ft 13kts
25-May-19 14:35 34.432266 -119.835676 66 13ft 0kts
25-May-19 14:36 34.432267 -119.835674 66 13ft 0kts
25-May-19 14:37 34.432267 -119.835674 66 13ft 0kts
25-May-19 14:38 34.432267 -119.835674 66 13ft 0kts

Navigation Log

Ident Type
Flight plan parsing failed, navigation log unavailable